createdAt,value
2023-02-14T00:01:20.620Z,31.13
2023-02-14T00:03:49.500Z,38.90
2023-02-14T00:06:17.254Z,35.67
2023-02-14T00:08:45.019Z,33.60
2023-02-14T00:11:13.645Z,30.67
2023-02-14T00:14:01.123Z,35.10
2023-02-14T00:16:28.528Z,34.60
2023-02-14T00:19:05.089Z,39.30
2023-02-14T00:21:36.132Z,33.72
2023-02-14T00:24:14.757Z,38.85
2023-02-14T00:26:42.999Z,34.55
2023-02-14T00:29:16.179Z,38.78
2023-02-14T00:31:44.690Z,38.10
2023-02-14T00:34:12.438Z,30.63
2023-02-14T00:36:39.877Z,36.20
2023-02-14T00:39:09.712Z,37.72
2023-02-14T00:41:38.219Z,36.45
2023-02-14T00:44:06.298Z,31.48
2023-02-14T00:46:33.935Z,38.30
2023-02-14T00:49:01.994Z,32.13
2023-02-14T00:51:30.154Z,39.90
2023-02-14T00:53:57.576Z,36.42
2023-02-14T00:56:24.932Z,37.22
2023-02-14T00:58:52.249Z,35.17
2023-02-14T01:01:19.822Z,38.28
2023-02-14T01:03:47.362Z,38.15
2023-02-14T01:06:15.216Z,42.58
2023-02-14T01:08:42.679Z,46.78
2023-02-14T01:11:20.180Z,47.15
2023-02-14T01:13:49.132Z,45.58
2023-02-14T01:16:20.994Z,38.00
2023-02-14T01:18:49.340Z,46.75
2023-02-14T01:21:23.363Z,37.83
2023-02-14T01:23:53.200Z,53.92
2023-02-14T01:26:22.246Z,41.90
2023-02-14T01:28:50.444Z,45.00
2023-02-14T01:31:24.070Z,45.63
2023-02-14T01:33:52.034Z,45.63
2023-02-14T01:36:23.822Z,52.72
2023-02-14T01:38:54.078Z,43.15
2023-02-14T01:41:24.147Z,37.78
2023-02-14T01:43:56.029Z,46.93
2023-02-14T01:46:26.193Z,38.80
2023-02-14T01:48:59.038Z,39.33
2023-02-14T01:51:26.562Z,37.85
2023-02-14T01:53:54.993Z,39.88
2023-02-14T01:56:29.730Z,39.65
2023-02-14T01:59:00.893Z,31.42
2023-02-14T02:01:29.973Z,32.75
2023-02-14T02:04:02.521Z,40.25
2023-02-14T02:06:35.650Z,40.83
2023-02-14T02:09:45.121Z,42.58
2023-02-14T02:12:12.818Z,37.40
2023-02-14T02:14:41.058Z,38.92
2023-02-14T02:17:28.668Z,38.42
2023-02-14T02:20:18.203Z,39.22
2023-02-14T02:23:04.035Z,36.67
2023-02-14T02:26:04.912Z,33.88
2023-02-14T02:29:02.994Z,35.30
2023-02-14T02:31:51.812Z,37.97
2023-02-14T02:34:28.223Z,31.92
2023-02-14T02:37:14.402Z,34.08
2023-02-14T02:40:05.811Z,33.72
2023-02-14T02:42:55.720Z,34.42
2023-02-14T02:45:57.677Z,31.33
2023-02-14T02:48:29.612Z,33.97
2023-02-14T02:51:19.712Z,39.20
2023-02-14T02:54:29.278Z,38.03
2023-02-14T02:56:59.993Z,33.92
2023-02-14T02:59:39.318Z,36.25
2023-02-14T03:02:25.051Z,39.78
2023-02-14T03:04:56.727Z,39.80
2023-02-14T03:07:41.330Z,31.33
2023-02-14T03:10:15.159Z,33.00
2023-02-14T03:12:56.560Z,34.97
2023-02-14T03:15:39.029Z,32.83
2023-02-14T03:18:47.969Z,35.42
2023-02-14T03:21:23.435Z,38.63
2023-02-14T03:24:15.647Z,35.53
2023-02-14T03:27:07.128Z,37.75
2023-02-14T03:29:46.007Z,37.35
2023-02-14T03:32:17.713Z,37.72
2023-02-14T03:34:57.186Z,34.60
2023-02-14T03:37:40.619Z,33.72
2023-02-14T03:40:18.457Z,40.17
2023-02-14T03:42:56.335Z,34.42
2023-02-14T03:45:32.315Z,40.15
2023-02-14T03:48:04.219Z,42.03
2023-02-14T03:50:33.208Z,42.92
2023-02-14T03:53:01.427Z,43.38
2023-02-14T03:56:09.321Z,38.42
2023-02-14T03:58:43.126Z,40.28
2023-02-14T04:01:28.345Z,37.47
2023-02-14T04:03:57.782Z,33.55
2023-02-14T04:06:25.171Z,38.70
2023-02-14T04:08:52.514Z,40.97
2023-02-14T04:11:20.225Z,39.10
2023-02-14T04:13:47.582Z,44.00
2023-02-14T04:16:14.886Z,42.47
2023-02-14T04:19:01.098Z,34.00
2023-02-14T04:21:28.491Z,37.75
2023-02-14T04:23:55.850Z,36.92
2023-02-14T04:26:23.147Z,38.10
2023-02-14T04:28:50.407Z,39.80
2023-02-14T04:31:18.009Z,37.28
2023-02-14T04:33:48.074Z,40.83
2023-02-14T04:36:15.433Z,33.33
2023-02-14T04:38:42.753Z,35.67
2023-02-14T04:41:10.116Z,38.00
2023-02-14T04:43:37.521Z,36.67
2023-02-14T04:46:05.076Z,37.00
2023-02-14T04:48:32.383Z,50.47
2023-02-14T04:51:00.055Z,39.78
2023-02-14T04:53:27.667Z,34.78
2023-02-14T04:55:55.019Z,37.35
2023-02-14T04:58:22.400Z,44.40
2023-02-14T05:00:49.774Z,42.47
2023-02-14T05:03:17.162Z,40.85
2023-02-14T05:05:44.492Z,39.88
2023-02-14T05:08:12.044Z,40.90
2023-02-14T05:10:39.442Z,39.22
2023-02-14T05:13:06.910Z,42.40
2023-02-14T05:15:34.865Z,49.40
2023-02-14T05:18:05.718Z,44.22
2023-02-14T05:20:33.118Z,42.58
2023-02-14T05:23:03.358Z,45.42
2023-02-14T05:25:31.364Z,37.25
2023-02-14T05:27:58.631Z,46.08
2023-02-14T05:30:28.164Z,45.35
2023-02-14T05:32:55.666Z,41.05
2023-02-14T05:35:23.073Z,47.45
2023-02-14T05:37:50.632Z,48.60
2023-02-14T05:40:18.192Z,46.28
2023-02-14T05:42:45.690Z,43.38
2023-02-14T05:45:13.032Z,40.00
2023-02-14T05:47:40.644Z,42.03
2023-02-14T05:50:09.035Z,41.80
2023-02-14T05:52:37.731Z,38.15
2023-02-14T05:55:05.800Z,40.85
2023-02-14T05:57:33.319Z,46.13
2023-02-14T06:00:00.774Z,44.58
2023-02-14T06:02:28.355Z,47.38
2023-02-14T06:04:55.823Z,40.78
2023-02-14T06:07:23.384Z,46.03
2023-02-14T06:09:50.785Z,39.20
2023-02-14T06:12:18.096Z,47.92
2023-02-14T06:14:45.441Z,44.10
2023-02-14T06:17:12.917Z,44.38
2023-02-14T06:19:40.229Z,43.38
2023-02-14T06:22:07.509Z,50.25
2023-02-14T06:24:34.822Z,46.67
2023-02-14T06:27:02.373Z,49.38
2023-02-14T06:29:29.865Z,49.63
2023-02-14T06:31:57.283Z,55.97
2023-02-14T06:34:24.611Z,57.97
2023-02-14T06:36:51.942Z,56.78
2023-02-14T06:51:35.359Z,65.80
2023-02-14T06:54:02.642Z,56.58
2023-02-14T06:56:30.131Z,65.05
2023-02-14T06:58:57.545Z,61.08
2023-02-14T07:01:24.979Z,60.55
2023-02-14T07:03:52.368Z,55.63
2023-02-14T07:06:19.699Z,56.40
2023-02-14T07:08:47.142Z,55.00
2023-02-14T07:11:14.538Z,54.35
2023-02-14T07:13:43.828Z,49.22
2023-02-14T07:16:11.424Z,57.65
2023-02-14T07:18:38.766Z,52.88
2023-02-14T07:21:06.181Z,45.63
2023-02-14T07:23:33.544Z,53.33
2023-02-14T07:26:00.892Z,53.40
2023-02-14T07:30:55.475Z,48.20
2023-02-14T07:33:22.826Z,41.63
2023-02-14T07:35:50.104Z,43.08
2023-02-14T07:38:17.546Z,40.17
2023-02-14T07:40:44.866Z,47.88
2023-02-14T07:43:12.255Z,43.08
2023-02-14T07:45:39.888Z,46.38
2023-02-14T07:48:07.552Z,46.30
2023-02-14T07:50:34.890Z,42.85
2023-02-14T07:53:02.445Z,57.03
2023-02-14T07:55:29.779Z,56.90
2023-02-14T07:57:57.176Z,50.95
2023-02-14T08:00:24.531Z,46.80
2023-02-14T08:02:51.952Z,48.35
2023-02-14T08:05:19.618Z,47.60
2023-02-14T08:07:46.888Z,43.90
2023-02-14T08:10:15.304Z,51.75
2023-02-14T08:13:00.766Z,49.95
2023-02-14T08:15:52.024Z,46.83
2023-02-14T08:18:21.498Z,48.40
2023-02-14T08:20:50.016Z,47.60
2023-02-14T08:23:19.042Z,40.92
2023-02-14T08:25:48.336Z,40.65
2023-02-14T08:28:16.400Z,47.53
2023-02-14T08:30:45.073Z,47.22
2023-02-14T08:33:12.537Z,43.33
2023-02-14T08:35:39.924Z,45.70
2023-02-14T08:38:07.855Z,46.30
2023-02-14T08:40:37.132Z,35.33
2023-02-14T08:43:06.831Z,41.28
2023-02-14T08:45:34.389Z,37.22
2023-02-14T08:48:12.644Z,33.97
2023-02-14T08:50:40.396Z,36.08
2023-02-14T08:53:12.601Z,36.22
2023-02-14T08:55:40.290Z,36.92
2023-02-14T08:58:07.940Z,33.75
2023-02-14T09:00:35.409Z,30.88
2023-02-14T09:03:03.025Z,32.60
2023-02-14T09:05:30.419Z,32.33
2023-02-14T09:07:57.742Z,34.25
2023-02-14T09:10:25.646Z,29.02
2023-02-14T09:12:52.998Z,30.00
2023-02-14T09:15:20.522Z,36.03
2023-02-14T09:17:47.953Z,31.73
2023-02-14T09:20:16.422Z,34.97
2023-02-14T09:22:43.969Z,42.08
2023-02-14T09:25:11.684Z,35.67
2023-02-14T09:27:39.652Z,38.60
2023-02-14T09:30:09.815Z,35.35
2023-02-14T09:32:37.170Z,42.45
2023-02-14T09:35:04.808Z,36.63
2023-02-14T09:37:50.633Z,42.47
2023-02-14T09:40:20.249Z,40.03
2023-02-14T09:42:56.739Z,35.83
2023-02-14T09:45:29.763Z,40.22
2023-02-14T09:48:29.302Z,38.58
2023-02-14T09:51:20.081Z,37.00
2023-02-14T09:53:52.394Z,36.93
2023-02-14T09:56:37.332Z,34.30
2023-02-14T09:59:36.832Z,48.55
2023-02-14T10:02:29.771Z,37.83
2023-02-14T10:05:17.735Z,34.47
2023-02-14T10:08:04.217Z,37.60
2023-02-14T10:10:41.445Z,34.83
2023-02-14T10:13:27.663Z,40.15
2023-02-14T10:16:03.756Z,36.50
2023-02-14T10:18:46.514Z,37.90
2023-02-14T10:21:46.454Z,35.35
2023-02-14T10:24:40.209Z,34.85
2023-02-14T10:27:28.704Z,37.17
2023-02-14T10:29:56.184Z,32.97
2023-02-14T10:33:01.768Z,35.85
2023-02-14T10:35:50.954Z,40.15
2023-02-14T10:38:29.955Z,41.78
2023-02-14T10:41:27.821Z,37.67
2023-02-14T10:43:57.848Z,37.30
2023-02-14T10:46:59.079Z,28.50
2023-02-14T10:49:37.819Z,35.95
2023-02-14T10:52:35.672Z,28.67
2023-02-14T10:55:31.577Z,28.75
2023-02-14T10:58:04.265Z,20.52
2023-02-14T11:00:41.496Z,23.98
2023-02-14T11:03:10.906Z,26.05
2023-02-14T11:05:47.585Z,22.55
2023-02-14T11:08:28.924Z,25.48
2023-02-14T11:11:03.270Z,23.08
2023-02-14T11:13:39.026Z,23.05
2023-02-14T11:18:39.569Z,23.15
2023-02-14T11:21:09.613Z,23.42
2023-02-14T11:23:46.097Z,26.42
2023-02-14T11:26:29.574Z,21.92
2023-02-14T11:29:00.086Z,23.85
2023-02-14T11:31:33.242Z,24.73
2023-02-14T11:34:04.836Z,23.15
2023-02-14T11:36:39.209Z,15.90
2023-02-14T11:39:30.413Z,23.98
2023-02-14T11:42:00.951Z,20.40
2023-02-14T11:44:30.310Z,18.80
2023-02-14T11:47:15.806Z,21.90
2023-02-14T11:49:58.221Z,23.45
2023-02-14T11:52:29.808Z,19.40
2023-02-14T11:54:59.060Z,17.40
2023-02-14T11:57:34.753Z,16.10
2023-02-14T12:00:12.388Z,16.30
2023-02-14T12:02:51.032Z,13.60
2023-02-14T12:05:26.892Z,13.75
2023-02-14T12:07:57.605Z,17.38
2023-02-14T12:10:31.949Z,19.50
2023-02-14T12:13:22.076Z,14.88
2023-02-14T12:15:52.100Z,23.42
2023-02-14T12:18:35.494Z,17.60
2023-02-14T12:21:24.906Z,19.17
2023-02-14T12:24:03.392Z,17.70
2023-02-14T12:26:52.664Z,19.58
2023-02-14T12:29:28.729Z,20.65
2023-02-14T12:32:01.712Z,18.60
2023-02-14T12:34:29.776Z,23.73
2023-02-14T12:37:09.580Z,23.88
2023-02-14T12:39:49.039Z,24.52
2023-02-14T12:42:47.421Z,27.13
2023-02-14T12:45:46.589Z,25.58
2023-02-14T12:48:48.866Z,26.38
2023-02-14T12:51:21.913Z,23.50
2023-02-14T12:53:57.771Z,27.33
2023-02-14T12:56:31.497Z,26.42
2023-02-14T12:59:13.935Z,31.02
2023-02-14T13:01:59.899Z,25.70
2023-02-14T13:04:41.000Z,22.75
2023-02-14T13:07:17.735Z,28.43
2023-02-14T13:10:09.695Z,30.00
2023-02-14T13:13:01.872Z,32.08
2023-02-14T13:18:03.345Z,30.48
2023-02-14T13:20:31.085Z,32.17
2023-02-14T13:23:04.383Z,34.25
2023-02-14T13:25:37.601Z,36.08
2023-02-14T13:28:10.166Z,34.60
2023-02-14T13:30:38.891Z,36.00
2023-02-14T13:33:44.477Z,43.78
2023-02-14T13:36:13.701Z,40.20
2023-02-14T13:38:45.914Z,48.10
2023-02-14T13:41:15.196Z,35.90
2023-02-14T13:44:02.550Z,46.40
2023-02-14T13:46:32.682Z,44.13
2023-02-14T13:49:33.173Z,42.75
2023-02-14T13:52:06.335Z,34.03
2023-02-14T13:54:47.412Z,40.83
2023-02-14T13:57:36.696Z,26.23
2023-02-14T14:00:19.516Z,38.33
2023-02-14T14:02:55.000Z,44.15
2023-02-14T14:05:35.482Z,57.45
2023-02-14T14:08:21.233Z,52.13
2023-02-14T14:10:51.138Z,54.80
2023-02-14T14:13:40.372Z,56.70
2023-02-14T14:16:28.569Z,62.78
2023-02-14T14:19:02.003Z,60.35
2023-02-14T14:21:35.212Z,60.33
2023-02-14T14:24:24.497Z,71.57
2023-02-14T14:26:57.697Z,72.47
2023-02-14T14:29:32.669Z,67.35
2023-02-14T14:32:07.655Z,65.57
2023-02-14T14:34:34.989Z,70.38
2023-02-14T14:37:08.014Z,65.70
2023-02-14T14:39:36.457Z,79.28
2023-02-14T14:42:24.636Z,70.35
2023-02-14T14:45:01.781Z,70.25
2023-02-14T14:47:54.084Z,77.90
2023-02-14T14:50:28.613Z,69.15
2023-02-14T14:52:58.527Z,65.82
2023-02-14T14:55:30.581Z,81.97
2023-02-14T14:58:04.203Z,75.25
2023-02-14T15:00:37.829Z,71.65
2023-02-14T15:03:11.538Z,75.43
2023-02-14T15:05:50.418Z,70.75
2023-02-14T15:08:22.496Z,69.85
2023-02-14T15:11:02.288Z,72.13
2023-02-14T15:13:49.909Z,70.38
2023-02-14T15:16:27.352Z,74.82
2023-02-14T15:19:17.301Z,69.93
2023-02-14T15:21:46.092Z,73.95
2023-02-14T15:24:16.006Z,63.38
2023-02-14T15:26:46.595Z,72.03
2023-02-14T15:29:31.895Z,80.05
2023-02-14T15:32:03.019Z,72.30
2023-02-14T15:34:36.067Z,76.22
2023-02-14T15:37:06.590Z,77.18
2023-02-14T15:39:40.565Z,75.30
2023-02-14T15:42:26.006Z,77.03
2023-02-14T15:45:17.129Z,71.07
2023-02-14T15:47:47.353Z,66.68
2023-02-14T15:50:27.935Z,70.13
2023-02-14T15:53:08.830Z,73.65
2023-02-14T15:55:36.956Z,60.85
2023-02-14T15:58:12.224Z,75.78
2023-02-14T16:00:43.126Z,69.68
2023-02-14T16:03:18.899Z,75.47
2023-02-14T16:05:48.091Z,65.55
2023-02-14T16:08:35.484Z,72.45
2023-02-14T16:11:05.144Z,74.80
2023-02-14T16:13:36.619Z,80.85
2023-02-14T16:16:05.315Z,80.72
2023-02-14T16:18:38.859Z,76.13
2023-02-14T16:21:21.655Z,79.75
2023-02-14T16:24:07.477Z,89.20
2023-02-14T16:26:43.537Z,76.25
2023-02-14T16:29:13.750Z,91.47
2023-02-14T16:34:40.875Z,88.70
2023-02-14T16:37:19.011Z,78.10
2023-02-14T16:39:46.715Z,81.63
2023-02-14T16:44:45.544Z,90.18
2023-02-14T16:47:14.465Z,93.10
2023-02-14T16:49:42.288Z,86.88
2023-02-14T16:52:14.447Z,77.10
2023-02-14T16:54:42.022Z,83.07
2023-02-14T16:57:18.733Z,106.72
2023-02-14T16:59:46.413Z,88.80
2023-02-14T17:02:14.013Z,88.35
2023-02-14T17:04:41.939Z,94.85
2023-02-14T17:07:09.543Z,84.82
2023-02-14T17:09:40.785Z,90.13
2023-02-14T17:12:15.232Z,94.03
2023-02-14T17:14:47.798Z,96.72
2023-02-14T17:17:15.791Z,95.75
2023-02-14T17:19:43.891Z,99.13
2023-02-14T17:22:13.604Z,94.78
2023-02-14T17:24:41.491Z,90.15
2023-02-14T17:27:08.810Z,93.45
2023-02-14T17:29:36.341Z,107.40
2023-02-14T17:32:03.725Z,92.50
2023-02-14T17:34:34.882Z,95.60
2023-02-14T17:37:02.925Z,98.47
2023-02-14T17:39:30.337Z,95.57
2023-02-14T17:41:58.128Z,97.18
2023-02-14T17:44:26.069Z,94.53
2023-02-14T17:46:54.698Z,95.60
2023-02-14T18:04:05.740Z,102.82
2023-02-14T18:06:33.584Z,100.10
2023-02-14T18:09:04.934Z,109.82
2023-02-14T18:11:32.295Z,98.15
2023-02-14T18:13:59.870Z,110.93
2023-02-14T18:16:27.216Z,99.50
2023-02-14T18:18:55.018Z,112.47
2023-02-14T18:21:24.526Z,107.15
2023-02-14T18:23:52.051Z,105.30
2023-02-14T18:26:19.580Z,105.78
2023-02-14T18:28:47.066Z,107.25
2023-02-14T18:31:16.772Z,109.32
2023-02-14T18:33:46.967Z,102.25
2023-02-14T18:36:17.525Z,107.70
2023-02-14T18:38:46.656Z,81.95
2023-02-14T18:41:16.904Z,82.00
2023-02-14T18:43:45.156Z,82.88
2023-02-14T18:46:18.536Z,84.15
2023-02-14T18:48:46.429Z,100.00
2023-02-14T18:51:26.259Z,86.18
2023-02-14T18:53:55.851Z,86.88
2023-02-14T18:56:27.145Z,86.72
2023-02-14T18:59:00.207Z,90.70
2023-02-14T19:01:30.532Z,90.18
2023-02-14T19:03:59.988Z,83.30
2023-02-14T19:06:29.585Z,95.13
2023-02-14T19:08:57.534Z,80.03
2023-02-14T19:11:29.509Z,82.82
2023-02-14T19:13:58.340Z,91.55
2023-02-14T19:16:33.122Z,84.63
2023-02-14T19:19:02.700Z,83.03
2023-02-14T19:21:33.691Z,84.95
2023-02-14T19:24:02.895Z,95.95
2023-02-14T19:26:32.943Z,82.30
2023-02-14T19:29:02.971Z,86.45
2023-02-14T19:31:31.005Z,81.38
2023-02-14T19:33:58.313Z,92.90
2023-02-14T19:36:25.700Z,93.68
